EZY6435 EGKK-EDDM
Flight info
| Callsign | EZY6435 |
|---|---|
| Flight time | 1h 24m |
| Altitude | 23000 |
| Route | DVR L9 KONAN/N0451F390 UL607 SPI DCT MOVUM T109 HAREM/N0386F230 T104 ROKIL ROKIL1B |
| Aircraft | A20N/M-SDE2E3FGHIRWXY/LB1 |
Departure
| Time | 2026-05-06 17:03 |
|---|---|
| Airport | London Gatwick Airport (EGKK) |
Arrival
| Time | 2026-05-06 18:27 |
|---|---|
| Airport | Munich Airport (EDDM) |
| Time | Latitude | Longitude | Altitude | Speed | Heading |
|---|---|---|---|---|---|
| 2026-05-06 16:20 | 51.15565 | -0.17821 | 204 ft | 0 kts | 347° |
| 2026-05-06 16:45 | 51.15557 | -0.17818 | 216 ft | 1 kts | 347° |
| 2026-05-06 16:46 | 51.15542 | -0.17813 | 211 ft | 3 kts | 345° |
| 2026-05-06 16:46 | 51.15525 | -0.17804 | 214 ft | 3 kts | 330° |
| 2026-05-06 16:46 | 51.15511 | -0.17786 | 217 ft | 3 kts | 298° |
| 2026-05-06 16:46 | 51.15506 | -0.17762 | 208 ft | 1 kts | 269° |
| 2026-05-06 16:47 | 51.15506 | -0.17755 | 209 ft | 0 kts | 261° |
| 2026-05-06 16:49 | 51.15504 | -0.17773 | 217 ft | 6 kts | 261° |
| 2026-05-06 16:49 | 51.15488 | -0.17887 | 213 ft | 13 kts | 257° |
| 2026-05-06 16:50 | 51.15467 | -0.18032 | 208 ft | 13 kts | 257° |
| 2026-05-06 16:50 | 51.15450 | -0.18173 | 212 ft | 13 kts | 261° |
| 2026-05-06 16:50 | 51.15415 | -0.18280 | 209 ft | 10 kts | 202° |
| 2026-05-06 16:50 | 51.15336 | -0.18263 | 204 ft | 13 kts | 168° |
| 2026-05-06 16:51 | 51.15264 | -0.18239 | 204 ft | 1 kts | 168° |
| 2026-05-06 16:51 | 51.15263 | -0.18239 | 204 ft | 1 kts | 168° |
| 2026-05-06 16:51 | 51.15255 | -0.18236 | 208 ft | 4 kts | 168° |
| 2026-05-06 16:51 | 51.15192 | -0.18256 | 209 ft | 12 kts | 232° |
| 2026-05-06 16:52 | 51.15176 | -0.18401 | 209 ft | 17 kts | 259° |
| 2026-05-06 16:52 | 51.15148 | -0.18609 | 204 ft | 21 kts | 257° |
| 2026-05-06 16:52 | 51.15115 | -0.18849 | 216 ft | 23 kts | 258° |
| 2026-05-06 16:52 | 51.15080 | -0.19111 | 208 ft | 25 kts | 256° |
| 2026-05-06 16:53 | 51.15042 | -0.19385 | 213 ft | 26 kts | 258° |
| 2026-05-06 16:53 | 51.15001 | -0.19671 | 207 ft | 27 kts | 257° |
| 2026-05-06 16:53 | 51.14963 | -0.19958 | 204 ft | 22 kts | 258° |
| 2026-05-06 16:53 | 51.14931 | -0.20187 | 204 ft | 22 kts | 259° |
| 2026-05-06 16:54 | 51.14907 | -0.20366 | 210 ft | 16 kts | 256° |
| 2026-05-06 16:54 | 51.14880 | -0.20554 | 210 ft | 19 kts | 258° |
| 2026-05-06 16:54 | 51.14851 | -0.20767 | 207 ft | 19 kts | 257° |
| 2026-05-06 16:54 | 51.14821 | -0.20967 | 210 ft | 18 kts | 257° |
| 2026-05-06 16:55 | 51.14803 | -0.21103 | 208 ft | 11 kts | 258° |
| 2026-05-06 16:55 | 51.14775 | -0.21239 | 205 ft | 13 kts | 257° |
| 2026-05-06 16:55 | 51.14757 | -0.21366 | 207 ft | 8 kts | 251° |
| 2026-05-06 16:55 | 51.14736 | -0.21402 | 211 ft | 0 kts | 207° |
| 2026-05-06 17:01 | 51.14703 | -0.21404 | 209 ft | 11 kts | 171° |
| 2026-05-06 17:02 | 51.14660 | -0.21362 | 217 ft | 0 kts | 137° |
| 2026-05-06 17:02 | 51.14637 | -0.21338 | 207 ft | 12 kts | 155° |
| 2026-05-06 17:02 | 51.14548 | -0.21278 | 216 ft | 16 kts | 138° |
| 2026-05-06 17:02 | 51.14529 | -0.21111 | 212 ft | 16 kts | 79° |
| 2026-05-06 17:03 | 51.14555 | -0.20917 | 212 ft | 29 kts | 77° |
| 2026-05-06 17:03 | 51.14667 | -0.20099 | 211 ft | 118 kts | 78° |
| 2026-05-06 17:03 | 51.14889 | -0.18479 | 355 ft | 173 kts | 77° |
| 2026-05-06 17:03 | 51.15137 | -0.16441 | 824 ft | 199 kts | 77° |
| 2026-05-06 17:04 | 51.15433 | -0.14228 | 1644 ft | 211 kts | 76° |
| 2026-05-06 17:04 | 51.15759 | -0.11897 | 2534 ft | 219 kts | 75° |
| 2026-05-06 17:04 | 51.16111 | -0.09470 | 3388 ft | 230 kts | 75° |
| 2026-05-06 17:04 | 51.16471 | -0.06939 | 4313 ft | 236 kts | 75° |
| 2026-05-06 17:05 | 51.16806 | -0.04329 | 5141 ft | 250 kts | 79° |
| 2026-05-06 17:05 | 51.16885 | -0.01429 | 5732 ft | 271 kts | 89° |
| 2026-05-06 17:05 | 51.16820 | 0.01578 | 5954 ft | 272 kts | 89° |
| 2026-05-06 17:05 | 51.16754 | 0.04608 | 6003 ft | 274 kts | 89° |
| 2026-05-06 17:06 | 51.16691 | 0.07627 | 6020 ft | 272 kts | 89° |
| 2026-05-06 17:06 | 51.16632 | 0.10640 | 6022 ft | 272 kts | 89° |
| 2026-05-06 17:06 | 51.16575 | 0.13660 | 6017 ft | 272 kts | 89° |
| 2026-05-06 17:06 | 51.16519 | 0.16667 | 6023 ft | 272 kts | 88° |
| 2026-05-06 17:07 | 51.16516 | 0.19679 | 6018 ft | 271 kts | 87° |
| 2026-05-06 17:07 | 51.16536 | 0.22642 | 6018 ft | 272 kts | 86° |
| 2026-05-06 17:07 | 51.16558 | 0.25652 | 6028 ft | 272 kts | 87° |
| 2026-05-06 17:07 | 51.16573 | 0.28656 | 6022 ft | 270 kts | 87° |
| 2026-05-06 17:08 | 51.16582 | 0.31653 | 6034 ft | 271 kts | 87° |
| 2026-05-06 17:08 | 51.16586 | 0.34662 | 6046 ft | 273 kts | 87° |
| 2026-05-06 17:08 | 51.16588 | 0.36716 | 6274 ft | 275 kts | 87° |
| 2026-05-06 17:08 | 51.16590 | 0.39781 | 7032 ft | 278 kts | 87° |
| 2026-05-06 17:09 | 51.16590 | 0.42851 | 8157 ft | 278 kts | 88° |
| 2026-05-06 17:09 | 51.16590 | 0.45979 | 9159 ft | 285 kts | 88° |
| 2026-05-06 17:09 | 51.16589 | 0.49115 | 10134 ft | 290 kts | 89° |
| 2026-05-06 17:09 | 51.16588 | 0.52411 | 10772 ft | 308 kts | 89° |
| 2026-05-06 17:10 | 51.16589 | 0.55931 | 11181 ft | 331 kts | 89° |
| 2026-05-06 17:10 | 51.16588 | 0.59692 | 11859 ft | 341 kts | 89° |
| 2026-05-06 17:10 | 51.16583 | 0.63484 | 12812 ft | 344 kts | 89° |
| 2026-05-06 17:10 | 51.16577 | 0.67307 | 13742 ft | 347 kts | 90° |
| 2026-05-06 17:11 | 51.16570 | 0.71177 | 14531 ft | 352 kts | 90° |
| 2026-05-06 17:11 | 51.16562 | 0.75109 | 15302 ft | 356 kts | 89° |
| 2026-05-06 17:11 | 51.16552 | 0.79085 | 16057 ft | 361 kts | 90° |
| 2026-05-06 17:11 | 51.16542 | 0.83118 | 16805 ft | 366 kts | 90° |
| 2026-05-06 17:12 | 51.16529 | 0.87199 | 17565 ft | 370 kts | 90° |
| 2026-05-06 17:12 | 51.16516 | 0.91330 | 18318 ft | 374 kts | 90° |
| 2026-05-06 17:12 | 51.16500 | 0.95500 | 18956 ft | 379 kts | 90° |
| 2026-05-06 17:12 | 51.16483 | 0.99728 | 19569 ft | 384 kts | 90° |
| 2026-05-06 17:13 | 51.16464 | 1.03829 | 20157 ft | 389 kts | 90° |
| 2026-05-06 17:13 | 51.16442 | 1.08289 | 20767 ft | 394 kts | 90° |
| 2026-05-06 17:13 | 51.16419 | 1.12684 | 21391 ft | 399 kts | 90° |
| 2026-05-06 17:13 | 51.16394 | 1.17136 | 21972 ft | 404 kts | 90° |
| 2026-05-06 17:14 | 51.16367 | 1.21640 | 22555 ft | 409 kts | 91° |
| 2026-05-06 17:14 | 51.16338 | 1.26199 | 23146 ft | 414 kts | 91° |
| 2026-05-06 17:14 | 51.16307 | 1.30813 | 23693 ft | 419 kts | 91° |
| 2026-05-06 17:14 | 51.16269 | 1.35470 | 24244 ft | 421 kts | 92° |
| 2026-05-06 17:15 | 51.16067 | 1.40123 | 24802 ft | 422 kts | 95° |
| 2026-05-06 17:15 | 51.15841 | 1.44798 | 25322 ft | 425 kts | 95° |
| 2026-05-06 17:15 | 51.15619 | 1.49507 | 25870 ft | 427 kts | 95° |
| 2026-05-06 17:15 | 51.15393 | 1.54229 | 26385 ft | 429 kts | 96° |
| 2026-05-06 17:16 | 51.15163 | 1.58987 | 26858 ft | 432 kts | 96° |
| 2026-05-06 17:16 | 51.14930 | 1.63764 | 27362 ft | 434 kts | 96° |
| 2026-05-06 17:16 | 51.14694 | 1.68558 | 27856 ft | 436 kts | 96° |
| 2026-05-06 17:16 | 51.14452 | 1.73389 | 28301 ft | 438 kts | 96° |
| 2026-05-06 17:17 | 51.14208 | 1.78235 | 28736 ft | 440 kts | 96° |
| 2026-05-06 17:17 | 51.13960 | 1.83107 | 29154 ft | 443 kts | 96° |
| 2026-05-06 17:17 | 51.13712 | 1.87945 | 29572 ft | 445 kts | 96° |
| 2026-05-06 17:17 | 51.13457 | 1.92875 | 29965 ft | 448 kts | 97° |
| 2026-05-06 17:18 | 51.13199 | 1.97832 | 30315 ft | 450 kts | 97° |
| 2026-05-06 17:18 | 51.12937 | 2.02805 | 30701 ft | 451 kts | 97° |
| 2026-05-06 17:18 | 51.12673 | 2.07793 | 31053 ft | 453 kts | 97° |
| 2026-05-06 17:18 | 51.12406 | 2.12799 | 31495 ft | 453 kts | 97° |
| 2026-05-06 17:19 | 51.12138 | 2.17783 | 31976 ft | 451 kts | 97° |
| 2026-05-06 17:19 | 51.11869 | 2.22748 | 32464 ft | 449 kts | 97° |
| 2026-05-06 17:19 | 51.11598 | 2.27705 | 32947 ft | 448 kts | 97° |
| 2026-05-06 17:19 | 51.11327 | 2.32629 | 33406 ft | 446 kts | 97° |
| 2026-05-06 17:20 | 51.11054 | 2.37541 | 33836 ft | 445 kts | 97° |
| 2026-05-06 17:20 | 51.10779 | 2.42442 | 34192 ft | 444 kts | 97° |
| 2026-05-06 17:20 | 51.10502 | 2.47344 | 34470 ft | 445 kts | 97° |
| 2026-05-06 17:20 | 51.10222 | 2.52250 | 34720 ft | 447 kts | 97° |
| 2026-05-06 17:21 | 51.09939 | 2.57188 | 34890 ft | 448 kts | 97° |
| 2026-05-06 17:21 | 51.09111 | 2.66960 | 34936 ft | 444 kts | 105° |
| 2026-05-06 17:22 | 51.07457 | 2.76324 | 34937 ft | 443 kts | 108° |
| 2026-05-06 17:22 | 51.05750 | 2.85726 | 34938 ft | 442 kts | 108° |
| 2026-05-06 17:23 | 51.04038 | 2.95128 | 34933 ft | 443 kts | 108° |
| 2026-05-06 17:23 | 51.02317 | 3.04515 | 34932 ft | 442 kts | 108° |
| 2026-05-06 17:24 | 51.00587 | 3.13903 | 34924 ft | 442 kts | 108° |
| 2026-05-06 17:24 | 50.98853 | 3.23268 | 34917 ft | 442 kts | 108° |
| 2026-05-06 17:25 | 50.97122 | 3.32559 | 34910 ft | 442 kts | 108° |
| 2026-05-06 17:25 | 50.95372 | 3.41910 | 34904 ft | 442 kts | 108° |
| 2026-05-06 17:26 | 50.93616 | 3.51250 | 34902 ft | 442 kts | 108° |
| 2026-05-06 17:26 | 50.91853 | 3.60581 | 34899 ft | 442 kts | 108° |
| 2026-05-06 17:27 | 50.90074 | 3.69915 | 34895 ft | 442 kts | 109° |
| 2026-05-06 17:27 | 50.88273 | 3.79239 | 34898 ft | 442 kts | 109° |
| 2026-05-06 17:28 | 50.86464 | 3.88565 | 34896 ft | 443 kts | 109° |
| 2026-05-06 17:28 | 50.84661 | 3.97825 | 34891 ft | 443 kts | 109° |
| 2026-05-06 17:29 | 50.82835 | 4.07156 | 34887 ft | 444 kts | 109° |
| 2026-05-06 17:29 | 50.81002 | 4.16479 | 34886 ft | 444 kts | 109° |
| 2026-05-06 17:30 | 50.79160 | 4.25802 | 34888 ft | 444 kts | 109° |
| 2026-05-06 17:30 | 50.77307 | 4.35136 | 34887 ft | 445 kts | 109° |
| 2026-05-06 17:31 | 50.75456 | 4.44418 | 34910 ft | 445 kts | 109° |
| 2026-05-06 17:31 | 50.73578 | 4.53787 | 34908 ft | 445 kts | 110° |
| 2026-05-06 17:32 | 50.71709 | 4.63100 | 34905 ft | 445 kts | 109° |
| 2026-05-06 17:32 | 50.70815 | 4.67711 | 35022 ft | 445 kts | 109° |
| 2026-05-06 17:32 | 50.69894 | 4.72486 | 34905 ft | 454 kts | 108° |
| 2026-05-06 17:33 | 50.68053 | 4.82009 | 34889 ft | 453 kts | 108° |
| 2026-05-06 17:33 | 50.66209 | 4.91462 | 34885 ft | 453 kts | 108° |
| 2026-05-06 17:34 | 50.64291 | 5.00923 | 34886 ft | 453 kts | 109° |
| 2026-05-06 17:34 | 50.62336 | 5.10363 | 34888 ft | 453 kts | 109° |
| 2026-05-06 17:35 | 50.60381 | 5.19798 | 34881 ft | 453 kts | 109° |
| 2026-05-06 17:35 | 50.58426 | 5.29211 | 34879 ft | 452 kts | 109° |
| 2026-05-06 17:36 | 50.55479 | 5.43321 | 34881 ft | 453 kts | 110° |
| 2026-05-06 17:36 | 50.53503 | 5.52730 | 34877 ft | 453 kts | 110° |
| 2026-05-06 17:37 | 50.51520 | 5.62124 | 34889 ft | 453 kts | 110° |
| 2026-05-06 17:37 | 50.49718 | 5.71611 | 34876 ft | 454 kts | 107° |
| 2026-05-06 17:38 | 50.48057 | 5.81094 | 34874 ft | 454 kts | 107° |
| 2026-05-06 17:38 | 50.46344 | 5.90628 | 34878 ft | 453 kts | 107° |
| 2026-05-06 17:39 | 50.44601 | 6.00157 | 34863 ft | 454 kts | 108° |
| 2026-05-06 17:39 | 50.42849 | 6.09662 | 34868 ft | 454 kts | 108° |
| 2026-05-06 17:40 | 50.41088 | 6.19175 | 34855 ft | 454 kts | 108° |
| 2026-05-06 17:40 | 50.39316 | 6.28700 | 34850 ft | 455 kts | 108° |
| 2026-05-06 17:41 | 50.37537 | 6.38218 | 34849 ft | 455 kts | 108° |
| 2026-05-06 17:41 | 50.35752 | 6.47713 | 34848 ft | 455 kts | 108° |
| 2026-05-06 17:42 | 50.33958 | 6.57210 | 34842 ft | 455 kts | 108° |
| 2026-05-06 17:42 | 50.32156 | 6.66703 | 34839 ft | 455 kts | 109° |
| 2026-05-06 17:43 | 50.30346 | 6.76190 | 34832 ft | 455 kts | 109° |
| 2026-05-06 17:43 | 50.28529 | 6.85661 | 34829 ft | 455 kts | 109° |
| 2026-05-06 17:44 | 50.26717 | 6.95066 | 34832 ft | 455 kts | 109° |
| 2026-05-06 17:44 | 50.24871 | 7.04593 | 34832 ft | 454 kts | 109° |
| 2026-05-06 17:45 | 50.23045 | 7.13976 | 34827 ft | 454 kts | 109° |
| 2026-05-06 17:45 | 50.21197 | 7.23420 | 34833 ft | 454 kts | 109° |
| 2026-05-06 17:46 | 50.19350 | 7.32817 | 34831 ft | 454 kts | 109° |
| 2026-05-06 17:46 | 50.17485 | 7.42256 | 34832 ft | 454 kts | 110° |
| 2026-05-06 17:47 | 50.15620 | 7.51651 | 34826 ft | 453 kts | 110° |
| 2026-05-06 17:47 | 50.13747 | 7.61041 | 34822 ft | 453 kts | 110° |
| 2026-05-06 17:48 | 50.11867 | 7.70424 | 34822 ft | 453 kts | 110° |
| 2026-05-06 17:48 | 50.09980 | 7.79795 | 34820 ft | 453 kts | 110° |
| 2026-05-06 17:49 | 50.08100 | 7.89083 | 34819 ft | 452 kts | 110° |
| 2026-05-06 17:49 | 50.06200 | 7.98424 | 34820 ft | 452 kts | 111° |
| 2026-05-06 17:50 | 50.04296 | 8.07744 | 34813 ft | 452 kts | 111° |
| 2026-05-06 17:50 | 50.02381 | 8.17072 | 34811 ft | 452 kts | 111° |
| 2026-05-06 17:51 | 50.00467 | 8.26355 | 34812 ft | 451 kts | 111° |
| 2026-05-06 17:51 | 49.98542 | 8.35648 | 34811 ft | 451 kts | 111° |
| 2026-05-06 17:52 | 49.96615 | 8.44911 | 34796 ft | 451 kts | 111° |
| 2026-05-06 17:52 | 49.94404 | 8.53984 | 34792 ft | 447 kts | 119° |
| 2026-05-06 17:53 | 49.91410 | 8.62385 | 34797 ft | 444 kts | 124° |
| 2026-05-06 17:53 | 49.88861 | 8.69293 | 34801 ft | 444 kts | 124° |
| 2026-05-06 17:54 | 49.85794 | 8.77603 | 34805 ft | 444 kts | 124° |
| 2026-05-06 17:54 | 49.82715 | 8.85891 | 34803 ft | 444 kts | 124° |
| 2026-05-06 17:55 | 49.79627 | 8.94173 | 34819 ft | 443 kts | 124° |
| 2026-05-06 17:55 | 49.76561 | 9.02388 | 34817 ft | 443 kts | 124° |
| 2026-05-06 17:56 | 49.73474 | 9.10636 | 34809 ft | 443 kts | 124° |
| 2026-05-06 17:56 | 49.70383 | 9.18865 | 34793 ft | 442 kts | 125° |
| 2026-05-06 17:57 | 49.67295 | 9.27061 | 34802 ft | 442 kts | 125° |
| 2026-05-06 17:57 | 49.64198 | 9.35256 | 34789 ft | 442 kts | 125° |
| 2026-05-06 17:58 | 49.60854 | 9.43155 | 34794 ft | 436 kts | 133° |
| 2026-05-06 17:58 | 49.56911 | 9.50136 | 34791 ft | 434 kts | 136° |
| 2026-05-06 17:59 | 49.53247 | 9.56545 | 34786 ft | 435 kts | 136° |
| 2026-05-06 17:59 | 49.49247 | 9.63541 | 34790 ft | 436 kts | 136° |
| 2026-05-06 18:00 | 49.46467 | 9.68390 | 34795 ft | 436 kts | 136° |
| 2026-05-06 18:00 | 49.42450 | 9.75381 | 34792 ft | 436 kts | 136° |
| 2026-05-06 18:01 | 49.38449 | 9.82323 | 34797 ft | 437 kts | 136° |
| 2026-05-06 18:01 | 49.34409 | 9.89304 | 34798 ft | 437 kts | 136° |
| 2026-05-06 18:02 | 49.30378 | 9.96251 | 34587 ft | 434 kts | 137° |
| 2026-05-06 18:02 | 49.28375 | 9.99698 | 34128 ft | 431 kts | 137° |
| 2026-05-06 18:02 | 49.26381 | 10.03123 | 33524 ft | 429 kts | 137° |
| 2026-05-06 18:03 | 49.24395 | 10.06524 | 32765 ft | 429 kts | 137° |
| 2026-05-06 18:03 | 49.22407 | 10.09922 | 31983 ft | 429 kts | 136° |
| 2026-05-06 18:03 | 49.20418 | 10.13318 | 31200 ft | 428 kts | 136° |
| 2026-05-06 18:03 | 49.18427 | 10.16717 | 30423 ft | 428 kts | 136° |
| 2026-05-06 18:04 | 49.16448 | 10.20100 | 29764 ft | 425 kts | 136° |
| 2026-05-06 18:04 | 49.14486 | 10.23454 | 29075 ft | 421 kts | 136° |
| 2026-05-06 18:04 | 49.12529 | 10.26734 | 28387 ft | 416 kts | 137° |
| 2026-05-06 18:04 | 49.10541 | 10.29934 | 27700 ft | 412 kts | 137° |
| 2026-05-06 18:05 | 49.08566 | 10.33077 | 27028 ft | 409 kts | 137° |
| 2026-05-06 18:05 | 49.06607 | 10.36194 | 26370 ft | 405 kts | 137° |
| 2026-05-06 18:05 | 49.04664 | 10.39296 | 25718 ft | 403 kts | 137° |
| 2026-05-06 18:05 | 49.02739 | 10.42375 | 25145 ft | 398 kts | 137° |
| 2026-05-06 18:06 | 49.00844 | 10.45410 | 24923 ft | 395 kts | 137° |
| 2026-05-06 18:06 | 48.98935 | 10.48459 | 24848 ft | 400 kts | 137° |
| 2026-05-06 18:06 | 48.97018 | 10.51515 | 24790 ft | 398 kts | 137° |
| 2026-05-06 18:06 | 48.95113 | 10.54550 | 24463 ft | 395 kts | 137° |
| 2026-05-06 18:07 | 48.93236 | 10.57537 | 23948 ft | 393 kts | 137° |
| 2026-05-06 18:07 | 48.91340 | 10.60553 | 23376 ft | 390 kts | 137° |
| 2026-05-06 18:07 | 48.89475 | 10.63516 | 22796 ft | 385 kts | 137° |
| 2026-05-06 18:07 | 48.87620 | 10.66460 | 22249 ft | 386 kts | 137° |
| 2026-05-06 18:08 | 48.85762 | 10.69403 | 21713 ft | 385 kts | 137° |
| 2026-05-06 18:08 | 48.83915 | 10.72325 | 21192 ft | 382 kts | 137° |
| 2026-05-06 18:08 | 48.82105 | 10.75189 | 20683 ft | 380 kts | 137° |
| 2026-05-06 18:08 | 48.80275 | 10.78079 | 20175 ft | 379 kts | 137° |
| 2026-05-06 18:09 | 48.78444 | 10.80957 | 19678 ft | 378 kts | 137° |
| 2026-05-06 18:09 | 48.76641 | 10.83785 | 19188 ft | 376 kts | 137° |
| 2026-05-06 18:09 | 48.74804 | 10.86662 | 18713 ft | 375 kts | 137° |
| 2026-05-06 18:09 | 48.72997 | 10.89490 | 18228 ft | 373 kts | 136° |
| 2026-05-06 18:10 | 48.71198 | 10.92304 | 17705 ft | 371 kts | 137° |
| 2026-05-06 18:10 | 48.69410 | 10.95100 | 17173 ft | 367 kts | 137° |
| 2026-05-06 18:10 | 48.67640 | 10.97862 | 16843 ft | 365 kts | 137° |
| 2026-05-06 18:10 | 48.65860 | 11.00632 | 16353 ft | 367 kts | 137° |
| 2026-05-06 18:11 | 48.64090 | 11.03384 | 15844 ft | 363 kts | 137° |
| 2026-05-06 18:11 | 48.62336 | 11.06109 | 15336 ft | 360 kts | 137° |
| 2026-05-06 18:11 | 48.60583 | 11.08830 | 14842 ft | 361 kts | 137° |
| 2026-05-06 18:11 | 48.58837 | 11.11527 | 14354 ft | 357 kts | 139° |
| 2026-05-06 18:12 | 48.56953 | 11.13949 | 13872 ft | 353 kts | 147° |
| 2026-05-06 18:12 | 48.54924 | 11.16025 | 13368 ft | 352 kts | 149° |
| 2026-05-06 18:12 | 48.52899 | 11.18072 | 12835 ft | 348 kts | 149° |
| 2026-05-06 18:12 | 48.50935 | 11.20197 | 12334 ft | 346 kts | 144° |
| 2026-05-06 18:13 | 48.49137 | 11.22609 | 11814 ft | 346 kts | 141° |
| 2026-05-06 18:13 | 48.47355 | 11.25030 | 11307 ft | 345 kts | 141° |
| 2026-05-06 18:13 | 48.45586 | 11.27425 | 10955 ft | 337 kts | 141° |
| 2026-05-06 18:13 | 48.43836 | 11.29788 | 10850 ft | 340 kts | 141° |
| 2026-05-06 18:14 | 48.42334 | 11.32569 | 10833 ft | 347 kts | 121° |
| 2026-05-06 18:14 | 48.41930 | 11.33923 | 10830 ft | 350 kts | 112° |
| 2026-05-06 18:14 | 48.41524 | 11.37549 | 10822 ft | 356 kts | 93° |
| 2026-05-06 18:14 | 48.41684 | 11.41278 | 10825 ft | 358 kts | 85° |
| 2026-05-06 18:15 | 48.42030 | 11.44936 | 10823 ft | 358 kts | 83° |
| 2026-05-06 18:15 | 48.42409 | 11.48637 | 10823 ft | 357 kts | 83° |
| 2026-05-06 18:15 | 48.42763 | 11.52318 | 10766 ft | 353 kts | 84° |
| 2026-05-06 18:15 | 48.43089 | 11.55948 | 10658 ft | 344 kts | 84° |
| 2026-05-06 18:16 | 48.43388 | 11.59500 | 10250 ft | 341 kts | 85° |
| 2026-05-06 18:16 | 48.43670 | 11.63034 | 9781 ft | 339 kts | 85° |
| 2026-05-06 18:16 | 48.43945 | 11.66547 | 9268 ft | 336 kts | 85° |
| 2026-05-06 18:16 | 48.44216 | 11.70035 | 8791 ft | 333 kts | 85° |
| 2026-05-06 18:17 | 48.44480 | 11.73412 | 8614 ft | 316 kts | 85° |
| 2026-05-06 18:17 | 48.44731 | 11.76615 | 8352 ft | 300 kts | 85° |
| 2026-05-06 18:17 | 48.44972 | 11.79713 | 7915 ft | 297 kts | 85° |
| 2026-05-06 18:17 | 48.45209 | 11.82798 | 7528 ft | 295 kts | 85° |
| 2026-05-06 18:18 | 48.45444 | 11.85849 | 7142 ft | 293 kts | 85° |
| 2026-05-06 18:18 | 48.45677 | 11.88891 | 6752 ft | 292 kts | 85° |
| 2026-05-06 18:18 | 48.45909 | 11.91918 | 6436 ft | 288 kts | 85° |
| 2026-05-06 18:18 | 48.46136 | 11.94872 | 6305 ft | 284 kts | 85° |
| 2026-05-06 18:19 | 48.46363 | 11.97870 | 6230 ft | 290 kts | 85° |
| 2026-05-06 18:19 | 48.46594 | 12.00894 | 6104 ft | 291 kts | 85° |
| 2026-05-06 18:19 | 48.46823 | 12.03910 | 5976 ft | 288 kts | 84° |
| 2026-05-06 18:19 | 48.47047 | 12.06882 | 5754 ft | 285 kts | 84° |
| 2026-05-06 18:20 | 48.47243 | 12.09869 | 5365 ft | 285 kts | 91° |
| 2026-05-06 18:20 | 48.46838 | 12.12691 | 5067 ft | 276 kts | 119° |
| 2026-05-06 18:20 | 48.45650 | 12.14846 | 4939 ft | 257 kts | 149° |
| 2026-05-06 18:20 | 48.44092 | 12.15796 | 4789 ft | 231 kts | 173° |
| 2026-05-06 18:21 | 48.42567 | 12.15984 | 4632 ft | 209 kts | 195° |
| 2026-05-06 18:21 | 48.41382 | 12.15082 | 4457 ft | 185 kts | 230° |
| 2026-05-06 18:21 | 48.40618 | 12.13730 | 4366 ft | 157 kts | 234° |
| 2026-05-06 18:21 | 48.39971 | 12.12528 | 4150 ft | 142 kts | 234° |
| 2026-05-06 18:22 | 48.39339 | 12.11370 | 3890 ft | 151 kts | 234° |
| 2026-05-06 18:22 | 48.38722 | 12.10004 | 3987 ft | 164 kts | 248° |
| 2026-05-06 18:22 | 48.38389 | 12.08376 | 3997 ft | 164 kts | 260° |
| 2026-05-06 18:22 | 48.38222 | 12.06689 | 3995 ft | 161 kts | 264° |
| 2026-05-06 18:23 | 48.38106 | 12.05009 | 3998 ft | 162 kts | 265° |
| 2026-05-06 18:23 | 48.37995 | 12.03323 | 3996 ft | 161 kts | 265° |
| 2026-05-06 18:23 | 48.37886 | 12.01647 | 3998 ft | 162 kts | 265° |
| 2026-05-06 18:23 | 48.37775 | 11.99960 | 3875 ft | 160 kts | 265° |
| 2026-05-06 18:24 | 48.37669 | 11.98326 | 3661 ft | 156 kts | 265° |
| 2026-05-06 18:24 | 48.37563 | 11.96694 | 3455 ft | 158 kts | 265° |
| 2026-05-06 18:24 | 48.37461 | 11.95133 | 3248 ft | 141 kts | 265° |
| 2026-05-06 18:24 | 48.37371 | 11.93751 | 3069 ft | 125 kts | 264° |
| 2026-05-06 18:25 | 48.37290 | 11.92524 | 2919 ft | 116 kts | 264° |
| 2026-05-06 18:25 | 48.37213 | 11.91328 | 2763 ft | 113 kts | 265° |
| 2026-05-06 18:25 | 48.37135 | 11.90142 | 2607 ft | 115 kts | 265° |
| 2026-05-06 18:25 | 48.37073 | 11.88899 | 2448 ft | 124 kts | 269° |
| 2026-05-06 18:26 | 48.37102 | 11.87622 | 2242 ft | 120 kts | 270° |
| 2026-05-06 18:26 | 48.37050 | 11.86405 | 2061 ft | 114 kts | 264° |
| 2026-05-06 18:26 | 48.36974 | 11.85206 | 1946 ft | 117 kts | 261° |
| 2026-05-06 18:26 | 48.36851 | 11.83992 | 1797 ft | 116 kts | 260° |
| 2026-05-06 18:27 | 48.36750 | 11.82783 | 1615 ft | 116 kts | 261° |
| 2026-05-06 18:27 | 48.36647 | 11.81586 | 1476 ft | 114 kts | 262° |
| 2026-05-06 18:27 | 48.36571 | 11.80626 | 1468 ft | 55 kts | 264° |
| 2026-05-06 18:27 | 48.36548 | 11.80289 | 1463 ft | 41 kts | 263° |
| 2026-05-06 18:28 | 48.36511 | 11.79885 | 1460 ft | 37 kts | 252° |
| 2026-05-06 18:28 | 48.36399 | 11.79596 | 1461 ft | 24 kts | 236° |
| 2026-05-06 18:28 | 48.36315 | 11.79431 | 1460 ft | 0 kts | 229° |
| 2026-05-06 18:28 | 48.36310 | 11.79423 | 1462 ft | 7 kts | 230° |
| 2026-05-06 18:29 | 48.36268 | 11.79345 | 1464 ft | 10 kts | 231° |
| 2026-05-06 18:29 | 48.36201 | 11.79303 | 1460 ft | 12 kts | 180° |
| 2026-05-06 18:29 | 48.36178 | 11.79304 | 1461 ft | 0 kts | 178° |
| 2026-05-06 18:30 | 48.36177 | 11.79304 | 1461 ft | 1 kts | 178° |
| 2026-05-06 18:30 | 48.36136 | 11.79310 | 1460 ft | 11 kts | 178° |
| 2026-05-06 18:31 | 48.36085 | 11.79218 | 1465 ft | 14 kts | 264° |
| 2026-05-06 18:31 | 48.36076 | 11.79090 | 1458 ft | 14 kts | 264° |
| 2026-05-06 18:31 | 48.36064 | 11.78935 | 1463 ft | 15 kts | 262° |
| 2026-05-06 18:31 | 48.36049 | 11.78770 | 1461 ft | 17 kts | 262° |
| 2026-05-06 18:32 | 48.36033 | 11.78585 | 1461 ft | 19 kts | 266° |
| 2026-05-06 18:32 | 48.36019 | 11.78388 | 1462 ft | 19 kts | 261° |
| 2026-05-06 18:32 | 48.36002 | 11.78182 | 1460 ft | 20 kts | 264° |
| 2026-05-06 18:32 | 48.35990 | 11.77982 | 1458 ft | 17 kts | 265° |
| 2026-05-06 18:33 | 48.35975 | 11.77802 | 1464 ft | 15 kts | 262° |
| 2026-05-06 18:33 | 48.35946 | 11.77687 | 1461 ft | 10 kts | 215° |
| 2026-05-06 18:33 | 48.35926 | 11.77679 | 1461 ft | 0 kts | 180° |
| 2026-05-06 18:36 | 48.35900 | 11.77683 | 1460 ft | 13 kts | 172° |
| 2026-05-06 18:36 | 48.35819 | 11.77704 | 1463 ft | 9 kts | 174° |
| 2026-05-06 18:37 | 48.35737 | 11.77751 | 1460 ft | 16 kts | 158° |
| 2026-05-06 18:37 | 48.35658 | 11.77772 | 1458 ft | 19 kts | 175° |
| 2026-05-06 18:37 | 48.35471 | 11.77795 | 1461 ft | 21 kts | 174° |
| 2026-05-06 18:37 | 48.35366 | 11.77840 | 1463 ft | 11 kts | 132° |
| 2026-05-06 18:38 | 48.35365 | 11.77967 | 1466 ft | 14 kts | 86° |
| 2026-05-06 18:38 | 48.35381 | 11.78128 | 1464 ft | 16 kts | 84° |
| 2026-05-06 18:38 | 48.35304 | 11.78208 | 1463 ft | 16 kts | 171° |
| 2026-05-06 18:38 | 48.35226 | 11.78253 | 1461 ft | 10 kts | 106° |
| 2026-05-06 18:39 | 48.35233 | 11.78323 | 1462 ft | 0 kts | 79° |